Time;durP1;ratioP1;P1;durP2;ratioP2;P2;SDS_P1;SDS_P2;PMS_P1;PMS_P2;Temp;Humidity;BMP_temperature;BMP_pressure;BME280_temperature;BME280_humidity;BME280_pressure;Samples;Min_cycle;Max_cycle;Signal;HPM_P1;HPM_P2
2023/12/15 00:01:34;;;;;;;0.90;0.70;;;8.10;99.90;;;8.04;72.99;94795.19;5057310;28;20917;-60
2023/12/15 00:04:02;;;;;;;0.80;0.60;;;8.10;99.90;;;8.04;72.76;94796.94;5058778;28;20516;-60
2023/12/15 00:06:31;;;;;;;1.00;0.80;;;8.10;99.90;;;8.02;72.40;94794.47;5060369;28;20508;-61
2023/12/15 00:08:58;;;;;;;0.87;0.63;;;8.10;99.90;;;8.02;72.76;94794.47;5054838;28;20892;-60
2023/12/15 00:11:31;;;;;;;13.70;0.80;;;8.10;99.90;;;8.01;72.51;94797.22;5060889;28;20465;-60
2023/12/15 00:13:59;;;;;;;1.07;0.50;;;8.10;99.90;;;8.00;73.18;94796.38;5064097;28;20470;-60
2023/12/15 00:16:26;;;;;;;1.23;0.70;;;8.10;99.90;;;8.03;73.05;94800.56;5062535;28;20455;-61
2023/12/15 00:18:53;;;;;;;3.87;0.70;;;8.00;99.90;;;8.03;72.57;94814.47;5062515;28;20814;-60
2023/12/15 00:21:20;;;;;;;0.80;0.60;;;8.10;99.90;;;8.02;72.58;94815.41;5063990;28;20453;-61
2023/12/15 00:23:48;;;;;;;0.80;0.60;;;8.10;99.90;;;8.03;72.63;94818.88;5062600;28;20471;-62
2023/12/15 00:26:16;;;;;;;0.90;0.80;;;8.10;99.90;;;8.04;72.83;94817.91;5061593;28;20520;-61
2023/12/15 00:28:44;;;;;;;1.43;1.10;;;8.10;99.90;;;8.05;72.48;94822.19;5063391;28;20484;-61
2023/12/15 00:31:11;;;;;;;1.20;1.10;;;8.10;99.90;;;8.06;72.75;94834.34;5061789;28;20466;-60
2023/12/15 00:33:39;;;;;;;1.00;0.90;;;8.10;99.90;;;8.09;72.94;94831.47;5060547;28;20522;-61
2023/12/15 00:36:08;;;;;;;1.03;0.80;;;8.10;99.90;;;8.10;72.92;94827.88;5056589;28;20478;-61
2023/12/15 00:38:35;;;;;;;0.90;0.70;;;8.10;99.90;;;8.10;73.03;94822.66;5062280;28;20920;-60
2023/12/15 00:41:02;;;;;;;1.43;0.80;;;8.20;99.90;;;8.12;73.35;94828.59;5063326;28;20485;-61
2023/12/15 00:43:30;;;;;;;0.90;0.70;;;8.20;99.90;;;8.14;72.46;94831.09;5057365;28;20494;-62
2023/12/15 00:45:59;;;;;;;0.80;0.73;;;8.20;99.90;;;8.14;72.42;94831.91;5061701;28;20454;-62
2023/12/15 00:48:26;;;;;;;0.90;0.80;;;8.20;99.90;;;8.14;72.37;94834.53;5063297;28;20463;-61
2023/12/15 00:50:54;;;;;;;0.80;0.67;;;8.20;99.90;;;8.16;72.79;94840.47;5060724;28;20448;-61
2023/12/15 00:53:21;;;;;;;2.03;0.73;;;8.20;99.90;;;8.18;72.71;94850.84;5061248;28;20570;-61
2023/12/15 00:55:48;;;;;;;0.97;0.87;;;8.20;99.90;;;8.19;72.46;94855.94;5062981;28;20451;-61
2023/12/15 00:58:15;;;;;;;0.80;0.60;;;8.20;99.90;;;8.18;72.89;94856.91;5060586;28;20472;-62
2023/12/15 01:00:43;;;;;;;0.90;0.70;;;8.20;99.90;;;8.18;72.57;94859.53;5061232;28;20451;-59
2023/12/15 01:03:11;;;;;;;1.27;0.80;;;8.20;99.90;;;8.18;72.57;94851.69;5063534;28;20520;-61
2023/12/15 01:05:39;;;;;;;1.00;0.70;;;8.20;99.90;;;8.18;72.24;94862.16;5057786;28;20455;-60
2023/12/15 01:08:06;;;;;;;2.83;0.70;;;8.20;99.90;;;8.17;72.81;94862.28;5061745;28;20462;-59
2023/12/15 01:10:33;;;;;;;1.00;0.90;;;8.20;99.90;;;8.14;72.83;94862.53;5062853;28;20454;-61
2023/12/15 01:13:01;;;;;;;0.93;0.83;;;8.20;99.90;;;8.14;72.96;94860.75;5060498;28;20480;-59
2023/12/15 01:15:28;;;;;;;0.93;0.80;;;8.20;99.90;;;8.15;73.03;94849.31;5060874;28;20525;-62
2023/12/15 01:17:55;;;;;;;1.00;0.90;;;8.20;99.90;;;8.15;72.46;94865.03;5062849;28;20809;-61
2023/12/15 01:20:24;;;;;;;0.80;0.60;;;8.20;99.90;;;8.16;73.17;94861.44;5059899;28;20832;-61
2023/12/15 01:22:51;;;;;;;1.00;0.80;;;8.20;99.90;;;8.16;72.85;94861.44;5059924;28;20471;-61
2023/12/15 01:25:18;;;;;;;1.17;1.00;;;8.20;99.90;;;8.18;73.12;94858.69;5062141;28;20466;-60
2023/12/15 01:27:46;;;;;;;1.37;1.00;;;8.20;99.90;;;8.19;73.20;94866.44;5060008;28;20533;-61
2023/12/15 01:30:13;;;;;;;1.30;1.17;;;8.20;99.90;;;8.16;73.09;94871.91;5060504;28;20446;-61
2023/12/15 01:32:41;;;;;;;1.10;1.00;;;8.20;99.90;;;8.19;73.07;94871.66;5062173;28;20479;-61
2023/12/15 01:35:09;;;;;;;1.17;0.80;;;8.30;99.90;;;8.21;73.24;94879.41;5059820;28;20571;-60
2023/12/15 01:37:38;;;;;;;1.93;1.10;;;8.20;99.90;;;8.21;72.86;94882.03;5060234;28;21160;-61
2023/12/15 01:40:06;;;;;;;1.70;1.10;;;8.30;99.90;;;8.19;73.02;94882.16;5061947;28;20451;-60
2023/12/15 01:42:33;;;;;;;1.00;0.90;;;8.20;99.90;;;8.19;73.18;94881.31;5059871;28;20467;-60
2023/12/15 01:45:00;;;;;;;1.10;0.90;;;8.20;99.90;;;8.19;73.48;94883.94;5060317;28;20447;-61
2023/12/15 01:47:28;;;;;;;1.03;0.93;;;8.30;99.90;;;8.18;72.79;94890.13;5061856;28;20471;-61
2023/12/15 01:49:55;;;;;;;0.90;0.80;;;8.20;99.90;;;8.18;73.24;94890.97;5060027;28;20482;-62
2023/12/15 01:52:22;;;;;;;1.00;0.90;;;8.20;99.90;;;8.18;73.16;94880.50;5060219;28;20476;-60
2023/12/15 01:54:51;;;;;;;0.90;0.80;;;8.20;99.90;;;8.17;73.39;94878.81;5061759;28;20491;-59
2023/12/15 01:57:18;;;;;;;0.80;0.70;;;8.20;99.90;;;8.17;73.44;94884.06;5059480;28;20483;-60
2023/12/15 01:59:46;;;;;;;1.67;1.43;;;8.20;99.90;;;8.17;73.38;94889.31;5059903;28;20455;-60
2023/12/15 02:02:14;;;;;;;2.20;1.00;;;8.20;99.90;;;8.17;73.47;94878.81;5061938;28;20470;-60
2023/12/15 02:04:41;;;;;;;1.20;0.90;;;8.20;99.90;;;8.17;73.44;94875.38;5059623;28;20483;-60
2023/12/15 02:07:08;;;;;;;1.40;0.97;;;8.20;99.90;;;8.16;73.65;94877.16;5058980;28;20472;-60
2023/12/15 02:09:36;;;;;;;1.13;0.90;;;8.20;99.90;;;8.15;73.14;94886.00;5061764;28;20447;-60
2023/12/15 02:12:06;;;;;;;0.90;0.80;;;8.20;99.90;;;8.15;73.22;94893.00;5059354;28;20479;-60
2023/12/15 02:14:33;;;;;;;1.03;0.93;;;8.20;99.90;;;8.13;73.49;94894.91;5058982;28;20519;-60
2023/12/15 02:17:00;;;;;;;1.50;1.00;;;8.20;99.90;;;8.12;73.50;94894.09;5061324;28;20543;-61
2023/12/15 02:19:28;;;;;;;3.37;1.53;;;8.20;99.90;;;8.12;73.75;94901.97;5059584;28;20448;-61
2023/12/15 02:21:55;;;;;;;2.43;1.40;;;8.20;99.90;;;8.12;73.43;94896.72;5059290;28;20537;-61
2023/12/15 02:24:24;;;;;;;2.10;1.53;;;8.20;99.90;;;8.12;73.81;94894.09;5061447;28;20447;-60
2023/12/15 02:26:51;;;;;;;2.40;1.40;;;8.20;99.90;;;8.12;73.35;94899.34;5059712;28;20471;-60
2023/12/15 02:29:19;;;;;;;1.60;1.50;;;8.20;99.90;;;8.15;73.91;94900.84;5058701;28;20451;-61
2023/12/15 02:31:46;;;;;;;1.30;1.20;;;8.20;99.90;;;8.14;73.79;94907.91;5057460;28;20470;-61
2023/12/15 02:34:13;;;;;;;2.27;1.57;;;8.20;99.90;;;8.14;73.87;94910.50;5059469;28;20487;-61
2023/12/15 02:36:41;;;;;;;1.20;1.10;;;8.20;99.90;;;8.14;73.86;94915.75;5058610;28;20474;-60
2023/12/15 02:39:08;;;;;;;1.20;1.10;;;8.20;99.90;;;8.14;73.76;94920.16;5058052;28;20503;-62
2023/12/15 02:41:37;;;;;;;1.30;1.17;;;8.20;99.90;;;8.14;73.72;94922.78;5059691;28;20451;-61
2023/12/15 02:44:04;;;;;;;2.70;1.60;;;8.20;99.90;;;8.13;73.91;94927.19;5060717;28;20632;-61
2023/12/15 02:46:32;;;;;;;2.10;2.00;;;8.20;99.90;;;8.12;73.74;94928.16;5054622;28;20871;-60
2023/12/15 02:48:59;;;;;;;2.10;2.00;;;8.20;99.90;;;8.11;73.90;94926.47;5059608;28;20818;-62
2023/12/15 02:51:28;;;;;;;1.60;1.50;;;8.20;99.90;;;8.10;73.81;94927.44;5060541;28;20920;-60
2023/12/15 02:53:55;;;;;;;2.37;2.27;;;8.10;99.90;;;8.08;73.54;94934.59;5055020;28;20502;-60
2023/12/15 02:56:22;;;;;;;2.63;2.43;;;8.10;99.90;;;8.08;73.88;94934.59;5058911;28;20446;-59
2023/12/15 02:58:51;;;;;;;2.40;2.30;;;8.10;99.90;;;8.08;73.62;94935.41;5060941;28;20541;-60
2023/12/15 03:01:19;;;;;;;2.40;2.30;;;8.10;99.90;;;8.10;73.93;94937.91;5058593;28;20463;-60
2023/12/15 03:03:45;;;;;;;2.90;2.70;;;8.10;99.90;;;8.10;74.14;94935.28;5059429;28;20471;-60
2023/12/15 03:06:12;;;;;;;3.60;3.30;;;8.20;99.90;;;8.12;74.18;94943.88;5061184;28;20453;-61
2023/12/15 03:08:39;;;;;;;3.20;3.00;;;8.20;99.90;;;8.11;73.30;94936.97;5058209;28;20540;-61
2023/12/15 03:11:08;;;;;;;3.63;3.23;;;8.20;99.90;;;8.12;73.87;94943.03;5059365;28;20504;-61
2023/12/15 03:13:36;;;;;;;4.03;3.70;;;8.20;99.90;;;8.12;73.98;94946.50;5060972;28;20497;-60
2023/12/15 03:16:08;;;;;;;4.13;3.90;;;8.20;99.90;;;8.12;73.97;94945.63;5058275;28;20513;-61
2023/12/15 03:18:36;;;;;;;3.80;3.60;;;8.20;99.90;;;8.12;73.37;94950.88;5058194;28;20551;-59
2023/12/15 03:21:03;;;;;;;3.97;3.73;;;8.20;99.90;;;8.10;73.65;94955.41;5060412;28;20513;-61
2023/12/15 03:23:31;;;;;;;5.10;3.83;;;8.10;99.90;;;8.10;73.65;94950.19;5058828;28;20475;-62
2023/12/15 03:25:58;;;;;;;4.30;3.90;;;8.20;99.90;;;8.08;73.47;94948.50;5057897;28;20861;-61
2023/12/15 03:28:26;;;;;;;5.50;4.40;;;8.10;99.90;;;8.08;73.59;94948.50;5060263;28;20536;-61
2023/12/15 03:30:53;;;;;;;4.77;4.37;;;8.10;99.90;;;8.08;73.92;94955.53;5058561;28;20447;-61
2023/12/15 03:33:24;;;;;;;4.83;4.43;;;8.10;99.90;;;8.10;73.74;94956.25;5058245;28;20475;-59
2023/12/15 03:35:51;;;;;;;5.67;5.10;;;8.20;99.90;;;8.10;73.30;94960.66;5054784;28;20524;-61
2023/12/15 03:38:19;;;;;;;5.47;4.90;;;8.10;99.90;;;8.09;73.38;94957.22;5058851;28;20467;-61
2023/12/15 03:40:47;;;;;;;5.37;4.90;;;8.20;99.90;;;8.09;73.54;94962.47;5060571;28;20494;-60
2023/12/15 03:43:14;;;;;;;6.00;5.23;;;8.20;99.90;;;8.10;73.19;94965.91;5058248;28;20468;-60
2023/12/15 03:45:41;;;;;;;5.83;5.33;;;8.10;99.90;;;8.08;73.22;94963.41;5060104;28;20470;-61
2023/12/15 03:48:09;;;;;;;5.70;5.20;;;8.10;99.90;;;8.08;73.12;94963.41;5064527;28;20546;-61
2023/12/15 03:50:37;;;;;;;7.27;5.97;;;8.10;99.90;;;8.09;73.31;94970.31;5062225;28;20498;-61
2023/12/15 03:53:05;;;;;;;6.67;5.97;;;8.10;99.90;;;8.09;73.25;94975.56;5062321;28;21030;-61
2023/12/15 03:55:32;;;;;;;5.60;5.00;;;8.10;99.90;;;8.10;73.21;94965.91;5064218;28;20501;-61
2023/12/15 03:57:59;;;;;;;6.00;5.00;;;8.10;99.90;;;8.08;72.87;94969.47;5061902;28;20468;-61
2023/12/15 04:00:27;;;;;;;7.40;6.30;;;8.10;99.90;;;8.10;73.00;94971.13;5062396;28;20500;-61
2023/12/15 04:02:55;;;;;;;5.87;5.37;;;8.10;99.90;;;8.11;73.18;94978.88;5064344;28;20478;-61
2023/12/15 04:05:22;;;;;;;6.70;5.83;;;8.20;99.90;;;8.12;73.04;94980.53;5061976;28;20460;-61
2023/12/15 04:07:51;;;;;;;5.93;5.33;;;8.20;99.90;;;8.13;72.82;94976.13;5062110;28;20468;-60
2023/12/15 04:10:18;;;;;;;6.67;6.07;;;8.20;99.90;;;8.13;73.33;94976.13;5064615;28;20592;-61
2023/12/15 04:12:45;;;;;;;5.70;5.20;;;8.20;99.90;;;8.13;73.30;94976.97;5061895;28;20479;-60
2023/12/15 04:15:13;;;;;;;6.20;5.60;;;8.20;99.90;;;8.13;72.74;94984.81;5061958;28;20499;-61
2023/12/15 04:17:42;;;;;;;5.90;5.30;;;8.20;99.90;;;8.13;72.92;94978.75;5063973;28;20470;-60
2023/12/15 04:20:10;;;;;;;6.60;5.67;;;8.20;99.90;;;8.14;72.95;94977.81;5062169;28;20452;-60
2023/12/15 04:22:37;;;;;;;6.50;5.80;;;8.20;99.90;;;8.14;72.93;94976.00;5061607;28;20476;-60
2023/12/15 04:25:07;;;;;;;7.43;6.53;;;8.20;99.90;;;8.11;72.76;94976.25;5064117;28;20459;-61
2023/12/15 04:27:34;;;;;;;6.70;6.00;;;8.20;99.90;;;8.15;72.91;94985.53;5062181;28;20521;-61
2023/12/15 04:30:02;;;;;;;6.53;5.93;;;8.20;99.90;;;8.16;72.53;94984.56;5061074;28;20505;-61
2023/12/15 04:32:29;;;;;;;7.50;5.57;;;8.20;99.90;;;8.18;72.99;94989.69;5057176;28;20935;-60
2023/12/15 04:34:56;;;;;;;5.60;5.10;;;8.20;99.90;;;8.18;72.90;94997.53;5062271;28;20490;-61
2023/12/15 04:37:24;;;;;;;6.10;5.60;;;8.20;99.90;;;8.19;73.13;94993.97;5063283;28;20915;-60
2023/12/15 04:39:51;;;;;;;6.67;6.07;;;8.20;99.90;;;8.20;72.50;94993.84;5060820;28;20444;-62
2023/12/15 04:42:20;;;;;;;6.30;5.43;;;8.30;99.90;;;8.21;72.53;94997.31;5060521;28;20472;-60
2023/12/15 04:44:47;;;;;;;6.83;6.20;;;8.30;99.90;;;8.20;72.21;95001.72;5061364;28;20479;-60
2023/12/15 04:47:14;;;;;;;7.57;6.70;;;8.20;99.90;;;8.18;72.22;95011.50;5063888;28;20573;-59
2023/12/15 04:49:42;;;;;;;6.73;6.13;;;8.20;99.90;;;8.17;72.46;95022.94;5061795;28;20948;-60
2023/12/15 04:52:09;;;;;;;8.80;6.50;;;8.20;99.90;;;8.17;72.64;95019.47;5060438;28;20479;-60
2023/12/15 04:54:37;;;;;;;7.60;6.10;;;8.20;99.90;;;8.18;72.37;95027.22;5059385;28;20995;-60
2023/12/15 04:57:04;;;;;;;7.80;6.10;;;8.20;99.90;;;8.18;72.27;95024.59;5060547;28;20849;-60
2023/12/15 04:59:39;;;;;;;8.43;5.43;;;8.20;99.90;;;8.16;72.37;95034.34;5061216;28;20467;-61
2023/12/15 05:02:07;;;;;;;4.90;4.47;;;8.20;99.90;;;8.16;72.30;95036.16;5058504;28;20507;-61
2023/12/15 05:04:35;;;;;;;8.17;5.90;;;8.20;99.90;;;8.17;72.64;95036.03;5059676;28;20482;-60
2023/12/15 05:07:04;;;;;;;5.90;5.40;;;8.20;99.90;;;8.17;72.49;95040.44;5060851;28;20475;-61
2023/12/15 05:09:31;;;;;;;4.97;4.57;;;8.20;99.90;;;8.18;72.39;95037.69;5061932;28;20459;-60
2023/12/15 05:11:59;;;;;;;9.53;4.50;;;8.20;99.90;;;8.19;72.64;95028.03;5062661;28;20995;-60
2023/12/15 05:14:26;;;;;;;5.73;5.20;;;8.30;99.90;;;8.18;71.97;95032.47;5057092;28;20471;-61
2023/12/15 05:16:55;;;;;;;6.23;4.47;;;8.20;99.90;;;8.19;72.23;95038.53;5061723;28;21061;-64
2023/12/15 05:19:22;;;;;;;5.90;5.40;;;8.20;99.90;;;8.18;71.99;95037.69;5063236;28;20460;-62
2023/12/15 05:21:50;;;;;;;4.50;4.10;;;8.20;99.90;;;8.19;72.11;95047.22;5060625;28;20475;-61
2023/12/15 05:24:17;;;;;;;6.17;5.53;;;8.20;99.90;;;8.20;72.22;95048.88;5061605;28;20454;-60
2023/12/15 05:26:45;;;;;;;4.83;4.50;;;8.30;99.90;;;8.19;71.51;95047.22;5062577;28;20443;-61
2023/12/15 05:29:12;;;;;;;6.10;5.27;;;8.20;99.90;;;8.18;71.93;95052.56;5060026;28;20458;-61
2023/12/15 05:31:40;;;;;;;5.40;4.90;;;8.30;99.90;;;8.19;71.77;95062.09;5060831;28;20477;-61
2023/12/15 05:34:09;;;;;;;6.17;5.00;;;8.20;99.90;;;8.18;71.36;95061.28;5061259;28;20450;-61
2023/12/15 05:36:37;;;;;;;8.07;5.80;;;8.30;99.90;;;8.18;71.87;95077.00;5062428;28;20573;-60
2023/12/15 05:39:05;;;;;;;4.47;4.07;;;8.20;99.90;;;8.18;71.66;95078.75;5062326;28;20448;-59
2023/12/15 05:41:32;;;;;;;6.60;5.73;;;8.20;99.90;;;8.17;71.40;95077.94;5060035;28;20566;-62
2023/12/15 05:43:59;;;;;;;5.23;4.80;;;8.20;99.90;;;8.17;71.32;95082.34;5061788;28;20451;-62
2023/12/15 05:46:27;;;;;;;4.63;4.23;;;8.30;99.90;;;8.16;71.66;95088.53;5061255;28;20447;-62
2023/12/15 05:48:54;;;;;;;5.53;4.90;;;8.20;99.90;;;8.16;71.17;95086.75;5062111;28;20474;-59
2023/12/15 05:51:23;;;;;;;6.70;6.00;;;8.20;99.90;;;8.15;71.15;95085.09;5060530;28;20452;-62
2023/12/15 05:53:51;;;;;;;5.83;5.23;;;8.20;99.90;;;8.16;71.45;95091.97;5063249;28;20473;-61
2023/12/15 05:56:18;;;;;;;7.60;4.97;;;8.20;99.90;;;8.17;71.72;95092.84;5059643;28;20496;-62
2023/12/15 05:58:45;;;;;;;4.83;4.43;;;8.20;99.90;;;8.17;71.06;95090.22;5061465;28;20869;-60
2023/12/15 06:01:13;;;;;;;5.37;4.83;;;8.20;99.90;;;8.18;71.17;95084.84;5060735;28;20451;-62
2023/12/15 06:03:40;;;;;;;6.20;5.60;;;8.30;99.90;;;8.16;71.79;95091.97;5058510;28;20996;-62
2023/12/15 06:06:12;;;;;;;6.30;4.70;;;8.20;99.90;;;8.17;71.40;95098.09;5061349;28;20451;-60
2023/12/15 06:08:40;;;;;;;8.23;5.93;;;8.20;99.90;;;8.15;70.96;95098.19;5061657;28;20885;-61
2023/12/15 06:11:08;;;;;;;6.87;6.17;;;8.20;99.90;;;8.14;71.17;95099.13;5055831;28;20464;-62
2023/12/15 06:13:35;;;;;;;10.00;7.27;;;8.20;99.90;;;8.15;71.19;95097.34;5060144;28;20991;-62
2023/12/15 06:16:03;;;;;;;7.17;6.43;;;8.20;99.90;;;8.15;71.43;95100.81;5057754;28;20499;-62
2023/12/15 06:18:31;;;;;;;10.50;7.07;;;8.20;99.90;;;8.15;71.20;95103.44;5061314;28;20467;-60
2023/12/15 06:20:58;;;;;;;8.10;7.00;;;8.20;99.90;;;8.15;71.38;95097.34;5060465;28;20456;-62
2023/12/15 06:23:25;;;;;;;7.37;6.53;;;8.20;99.90;;;8.15;71.74;95107.81;5059022;28;20484;-61
2023/12/15 06:25:54;;;;;;;24.70;6.90;;;8.20;99.90;;;8.13;71.70;95117.59;5061352;28;20882;-61
2023/12/15 06:28:22;;;;;;;8.80;7.60;;;8.20;99.90;;;8.13;72.07;95121.03;5060695;28;20532;-61
2023/12/15 06:30:49;;;;;;;13.57;8.70;;;8.20;99.90;;;8.11;71.99;95125.56;5058953;28;20833;-61
2023/12/15 06:33:17;;;;;;;10.17;7.57;;;8.20;99.90;;;8.11;71.93;95128.19;5060470;28;20846;-60
2023/12/15 06:35:44;;;;;;;10.07;8.17;;;8.20;99.90;;;8.10;72.22;95129.13;5060140;28;21070;-62
2023/12/15 06:38:12;;;;;;;10.63;8.33;;;8.20;99.90;;;8.06;71.74;95138.22;5057816;28;21031;-61
2023/12/15 06:40:40;;;;;;;12.60;7.97;;;8.10;99.90;;;8.03;71.86;95136.66;5059579;28;20459;-61
2023/12/15 06:43:09;;;;;;;8.90;7.07;;;8.10;99.90;;;8.00;72.11;95136.06;5057431;28;20479;-61
2023/12/15 06:45:36;;;;;;;10.77;8.33;;;8.10;99.90;;;7.99;72.23;95139.63;5061506;28;20812;-61
2023/12/15 06:48:04;;;;;;;9.70;8.20;;;8.00;99.90;;;7.97;72.19;95133.66;5059252;28;20475;-60
2023/12/15 06:50:31;;;;;;;8.80;7.23;;;8.00;99.90;;;7.96;72.60;95137.22;5059015;28;20505;-61
2023/12/15 06:52:59;;;;;;;13.17;8.13;;;8.00;99.90;;;7.95;72.21;95140.78;5061569;28;20471;-62
2023/12/15 06:55:26;;;;;;;11.07;7.37;;;8.00;99.90;;;7.94;72.34;95145.22;5059033;28;20495;-62
2023/12/15 06:57:54;;;;;;;12.13;8.40;;;8.00;99.90;;;7.93;72.35;95153.19;5058965;28;20565;-61
2023/12/15 07:00:23;;;;;;;13.40;7.67;;;8.00;99.90;;;7.94;72.50;95166.16;5060891;28;20455;-62
2023/12/15 07:02:51;;;;;;;12.07;9.53;;;8.00;99.90;;;7.95;73.03;95165.22;5058770;28;20840;-60
2023/12/15 07:05:18;;;;;;;20.20;14.13;;;8.00;99.90;;;7.97;73.12;95162.47;5058373;28;20466;-61
2023/12/15 07:07:45;;;;;;;12.40;9.80;;;8.00;99.90;;;7.95;73.07;95162.59;5061478;28;20474;-62
2023/12/15 07:10:13;;;;;;;9.70;8.37;;;8.00;99.90;;;7.95;73.03;95173.06;5059737;28;20832;-61
2023/12/15 07:12:40;;;;;;;12.50;8.00;;;8.00;99.90;;;7.94;73.01;95181.88;5059086;28;20832;-62
2023/12/15 07:15:09;;;;;;;10.67;9.50;;;8.00;99.90;;;7.94;73.54;95191.53;5060813;28;20487;-62
2023/12/15 07:17:37;;;;;;;11.80;9.60;;;8.00;99.90;;;7.93;73.23;95187.22;5059780;28;20472;-61
2023/12/15 07:20:08;;;;;;;11.60;9.40;;;8.00;99.90;;;7.92;73.02;95182.94;5058039;28;20454;-61
2023/12/15 07:22:35;;;;;;;12.10;8.63;;;8.00;99.90;;;7.92;73.23;95188.16;5055437;28;20474;-62
2023/12/15 07:25:03;;;;;;;8.97;8.03;;;8.00;99.90;;;7.91;73.01;95187.34;5058702;28;20447;-61
2023/12/15 07:27:30;;;;;;;12.90;9.93;;;8.00;99.90;;;7.92;72.89;95188.16;5060761;28;20515;-61
2023/12/15 07:29:58;;;;;;;12.00;8.73;;;8.00;99.90;;;7.89;72.84;95179.59;5058485;28;20459;-61
2023/12/15 07:32:25;;;;;;;12.40;10.13;;;8.00;99.90;;;7.86;72.79;95184.25;5057986;28;20471;-61
2023/12/15 07:34:54;;;;;;;12.00;10.00;;;8.00;99.90;;;7.84;73.07;95191.38;5060696;28;20459;-60
2023/12/15 07:37:21;;;;;;;16.40;12.03;;;7.90;99.90;;;7.83;73.19;95195.78;5058682;28;20464;-61
2023/12/15 07:39:49;;;;;;;11.67;9.67;;;7.90;99.90;;;7.83;72.80;95193.16;5058686;28;20448;-62
2023/12/15 07:42:16;;;;;;;13.17;10.93;;;7.90;99.90;;;7.83;73.43;95201.00;5060922;28;20475;-62
2023/12/15 07:44:44;;;;;;;13.00;11.50;;;7.90;99.90;;;7.85;72.71;95212.22;5058893;28;20513;-61
2023/12/15 07:47:11;;;;;;;10.60;9.40;;;7.90;99.90;;;7.86;73.33;95215.66;5058637;28;20476;-61
2023/12/15 07:49:39;;;;;;;14.00;10.83;;;7.90;99.90;;;7.87;73.64;95206.88;5061041;28;20504;-61
2023/12/15 07:52:07;;;;;;;13.07;9.90;;;7.90;99.90;;;7.89;73.29;95220.69;5058498;28;20475;-61
2023/12/15 07:54:36;;;;;;;14.60;9.20;;;7.90;99.90;;;7.89;72.94;95221.50;5058530;28;20456;-62
2023/12/15 07:57:03;;;;;;;11.30;8.20;;;7.90;99.90;;;7.90;73.30;95222.34;5060502;28;20502;-62
2023/12/15 07:59:31;;;;;;;12.10;9.27;;;7.90;99.90;;;7.90;73.51;95228.41;5058950;28;20478;-61
2023/12/15 08:01:59;;;;;;;11.77;8.40;;;7.90;99.90;;;7.89;73.37;95224.13;5057686;28;20467;-61
2023/12/15 08:04:27;;;;;;;13.87;9.33;;;7.90;99.90;;;7.90;72.96;95233.66;5054297;28;20452;-61
2023/12/15 08:06:54;;;;;;;12.43;9.97;;;7.90;99.90;;;7.93;73.10;95247.47;5059391;28;20466;-62
2023/12/15 08:09:23;;;;;;;11.97;9.13;;;8.00;99.90;;;7.95;73.21;95241.16;5060531;28;20447;-60
2023/12/15 08:11:51;;;;;;;14.30;9.70;;;8.00;99.90;;;7.95;73.25;95246.41;5054393;28;20490;-62
2023/12/15 08:14:18;;;;;;;9.13;7.80;;;8.00;99.90;;;7.97;72.84;95259.41;5059013;28;20451;-62
2023/12/15 08:16:46;;;;;;;12.50;8.70;;;8.00;99.90;;;7.98;72.72;95258.41;5060511;28;20869;-61
2023/12/15 08:19:13;;;;;;;11.33;9.37;;;8.00;99.90;;;8.00;72.97;95256.53;5054832;28;20620;-61
2023/12/15 08:21:41;;;;;;;14.73;9.63;;;8.10;99.90;;;8.00;72.76;95267.03;5059040;28;20486;-61
2023/12/15 08:24:08;;;;;;;16.23;8.93;;;8.00;99.90;;;8.03;72.96;95265.00;5060659;28;20459;-62
2023/12/15 08:26:37;;;;;;;13.73;8.30;;;8.10;99.90;;;8.06;72.77;95263.94;5054583;28;20448;-61
2023/12/15 08:29:04;;;;;;;11.47;8.10;;;8.10;99.90;;;8.07;73.07;95266.44;5057971;28;20459;-62
2023/12/15 08:31:32;;;;;;;9.87;8.83;;;8.10;99.90;;;8.08;73.15;95265.47;5062243;28;20451;-61
2023/12/15 08:33:59;;;;;;;9.27;8.20;;;8.10;99.90;;;8.11;72.57;95261.81;5060311;28;20447;-61
2023/12/15 08:36:27;;;;;;;10.93;8.73;;;8.20;99.90;;;8.13;72.72;95273.00;5062434;28;20490;-60
2023/12/15 08:38:54;;;;;;;8.93;7.80;;;8.20;99.90;;;8.16;72.60;95274.56;5063915;28;20501;-62
2023/12/15 08:41:21;;;;;;;11.73;7.93;;;8.20;99.90;;;8.16;72.32;95279.81;5061448;28;20960;-62
2023/12/15 08:43:50;;;;;;;20.70;14.43;;;8.20;99.90;;;8.17;72.71;95274.44;5062298;28;20528;-60
2023/12/15 08:46:18;;;;;;;11.40;8.60;;;8.30;99.90;;;8.16;72.23;95267.53;5063645;28;20454;-61
2023/12/15 08:48:45;;;;;;;21.70;12.80;;;8.20;99.90;;;8.17;72.34;95271.81;5061723;28;20472;-60
2023/12/15 08:51:12;;;;;;;15.60;12.03;;;8.20;99.90;;;8.18;72.12;95264.78;5061656;28;20459;-62
2023/12/15 08:53:39;;;;;;;16.20;10.27;;;8.20;99.90;;;8.19;72.27;95271.72;5063623;28;20506;-65
2023/12/15 08:56:07;;;;;;;16.20;10.77;;;8.20;99.90;;;8.18;72.24;95273.50;5061375;28;20582;-61
2023/12/15 08:58:35;;;;;;;17.47;13.83;;;8.20;99.90;;;8.18;72.50;95273.50;5061743;28;20562;-62
2023/12/15 09:01:04;;;;;;;15.90;11.10;;;8.20;99.90;;;8.20;72.59;95276.84;5063588;28;20479;-60
2023/12/15 09:03:32;;;;;;;13.47;9.40;;;8.30;99.90;;;8.19;72.76;95280.41;5060978;28;20800;-61
2023/12/15 09:05:59;;;;;;;10.00;8.63;;;8.30;99.90;;;8.17;72.20;95269.22;5061359;28;20570;-62
2023/12/15 09:08:27;;;;;;;15.33;11.03;;;8.20;99.90;;;8.15;72.31;95268.50;5063702;28;20493;-62
2023/12/15 09:10:54;;;;;;;12.47;7.90;;;8.20;99.90;;;8.14;72.06;95266.81;5061352;28;20462;-61
2023/12/15 09:13:22;;;;;;;10.10;8.27;;;8.20;99.90;;;8.15;72.25;95265.88;5061120;28;20475;-62
2023/12/15 09:15:50;;;;;;;14.40;8.53;;;8.20;99.90;;;8.16;72.49;95264.09;5063333;28;20494;-62
2023/12/15 09:18:18;;;;;;;11.80;9.20;;;8.20;99.90;;;8.18;72.66;95268.25;5061238;28;20503;-60
2023/12/15 09:20:46;;;;;;;14.03;8.67;;;8.20;99.90;;;8.18;72.96;95264.78;5060587;28;20452;-61
2023/12/15 09:23:13;;;;;;;16.40;12.37;;;8.20;99.90;;;8.19;72.64;95264.69;5063064;28;20467;-61
2023/12/15 09:25:40;;;;;;;14.47;9.47;;;8.20;99.90;;;8.20;72.26;95271.59;5061622;28;20439;-60
2023/12/15 09:28:09;;;;;;;17.20;10.73;;;8.30;99.90;;;8.19;72.31;95277.78;5060466;28;20529;-62
2023/12/15 09:30:36;;;;;;;11.67;8.53;;;8.20;99.90;;;8.20;72.49;95265.53;5062698;28;20455;-61
2023/12/15 09:33:04;;;;;;;17.70;10.80;;;8.30;99.90;;;8.21;72.19;95269.81;5060339;28;20476;-61
2023/12/15 09:35:32;;;;;;;21.30;13.17;;;8.30;99.90;;;8.23;72.83;95263.50;5060561;28;20463;-61
2023/12/15 09:38:00;;;;;;;13.83;11.23;;;8.30;99.90;;;8.25;72.41;95258.97;5056687;28;20472;-61
2023/12/15 09:40:29;;;;;;;18.00;11.40;;;8.30;99.90;;;8.26;72.66;95260.66;5061498;28;20451;-61
2023/12/15 09:42:57;;;;;;;17.83;11.77;;;8.30;99.90;;;8.27;72.78;95264.09;5062557;28;20474;-61
2023/12/15 09:45:24;;;;;;;13.80;9.43;;;8.30;99.90;;;8.30;72.76;95266.50;5059932;28;20448;-61
2023/12/15 09:47:51;;;;;;;13.33;9.83;;;8.30;99.90;;;8.32;72.80;95263.75;5060663;28;21026;-62
2023/12/15 09:50:20;;;;;;;16.43;9.50;;;8.40;99.90;;;8.33;72.45;95254.94;5062637;28;20451;-61
2023/12/15 09:52:49;;;;;;;14.70;10.70;;;8.40;99.90;;;8.36;72.69;95265.19;5060138;28;20540;-60
2023/12/15 09:55:16;;;;;;;17.37;9.97;;;8.40;99.90;;;8.35;72.40;95261.75;5060144;28;20460;-61
2023/12/15 09:57:44;;;;;;;15.70;10.43;;;8.40;99.90;;;8.35;72.71;95266.13;5061971;28;20498;-60
2023/12/15 10:00:12;;;;;;;20.30;9.50;;;8.40;99.90;;;8.34;72.19;95274.97;5059818;28;21017;-61
2023/12/15 10:02:40;;;;;;;14.70;10.07;;;8.40;99.90;;;8.32;72.81;95277.72;5059104;28;20479;-61
2023/12/15 10:05:07;;;;;;;12.37;9.70;;;8.40;99.90;;;8.32;72.57;95279.47;5061650;28;20470;-61
2023/12/15 10:07:36;;;;;;;15.17;9.60;;;8.40;99.90;;;8.34;72.64;95272.34;5060687;28;20487;-60
2023/12/15 10:10:05;;;;;;;15.93;10.13;;;8.40;99.90;;;8.35;72.68;95274.00;5059963;28;20859;-60
2023/12/15 10:12:33;;;;;;;15.93;10.20;;;8.40;99.90;;;8.34;72.97;95283.66;5055571;28;20479;-61
2023/12/15 10:15:00;;;;;;;15.93;11.10;;;8.40;99.90;;;8.34;72.80;95283.66;5060961;28;20458;-60
2023/12/15 10:17:28;;;;;;;14.07;10.40;;;8.40;99.90;;;8.37;72.64;95285.22;5061413;28;21037;-60
2023/12/15 10:20:05;;;;;;;17.13;11.37;;;8.40;99.90;;;8.39;73.01;95285.94;5061847;28;20470;-60
2023/12/15 10:22:33;;;;;;;14.00;10.83;;;8.40;99.90;;;8.41;72.96;95284.03;5061887;28;20484;-60
2023/12/15 10:25:00;;;;;;;16.73;11.17;;;8.50;99.90;;;8.40;72.74;95282.38;5056121;28;20459;-62
2023/12/15 10:27:29;;;;;;;16.37;11.60;;;8.50;99.90;;;8.39;72.57;95289.38;5060489;28;20475;-61
2023/12/15 10:29:56;;;;;;;17.90;11.67;;;8.40;99.90;;;8.40;72.74;95285.81;5061420;28;20446;-61
2023/12/15 10:32:26;;;;;;;19.10;13.20;;;8.50;99.90;;;8.40;72.77;95285.81;5058236;28;20504;-62